createdAt,value
2022-12-29T00:00:58.000Z,10.4
2022-12-29T00:02:15.000Z,10.4
2022-12-29T00:03:31.000Z,10.3
2022-12-29T00:04:47.000Z,10.3
2022-12-29T00:06:03.000Z,10.3
2022-12-29T00:07:20.000Z,10.3
2022-12-29T00:08:36.000Z,10.3
2022-12-29T00:09:52.000Z,10.3
2022-12-29T00:11:09.000Z,10.3
2022-12-29T00:12:25.669Z,10.4
2022-12-29T00:13:41.000Z,10.4
2022-12-29T00:14:57.000Z,10.4
2022-12-29T00:16:13.000Z,10.4
2022-12-29T00:17:29.000Z,10.4
2022-12-29T00:18:44.000Z,10.4
2022-12-29T00:20:01.000Z,10.4
2022-12-29T00:21:17.000Z,10.4
2022-12-29T00:22:33.000Z,10.4
2022-12-29T00:23:49.000Z,10.4
2022-12-29T00:25:04.619Z,10.4
2022-12-29T00:26:20.924Z,10.4
2022-12-29T00:27:35.000Z,10.5
2022-12-29T00:28:51.000Z,10.5
2022-12-29T00:30:07.000Z,10.5
2022-12-29T00:31:23.000Z,10.5
2022-12-29T00:32:39.000Z,10.5
2022-12-29T00:33:55.000Z,10.5
2022-12-29T00:35:11.000Z,10.5
2022-12-29T00:36:28.000Z,10.5
2022-12-29T00:37:44.718Z,10.5
2022-12-29T00:39:00.000Z,10.5
2022-12-29T00:40:17.000Z,10.5
2022-12-29T00:41:33.000Z,10.5
2022-12-29T00:42:49.000Z,10.5
2022-12-29T00:44:06.137Z,10.5
2022-12-29T00:45:22.000Z,10.6
2022-12-29T00:46:38.725Z,10.6
2022-12-29T00:47:53.000Z,10.6
2022-12-29T00:49:10.000Z,10.6
2022-12-29T00:50:26.000Z,10.6
2022-12-29T00:51:42.000Z,10.6
2022-12-29T00:52:59.155Z,10.6
2022-12-29T00:54:15.000Z,10.7
2022-12-29T00:55:31.000Z,10.7
2022-12-29T00:56:47.000Z,10.7
2022-12-29T00:58:04.000Z,10.7
2022-12-29T00:59:20.000Z,10.7
2022-12-29T01:00:36.000Z,10.7
2022-12-29T01:01:52.000Z,10.7
2022-12-29T01:03:09.000Z,10.7
2022-12-29T01:04:24.000Z,10.7
2022-12-29T01:05:40.000Z,10.7
2022-12-29T01:06:57.000Z,10.7
2022-12-29T01:08:13.000Z,10.6
2022-12-29T01:09:29.000Z,10.6
2022-12-29T01:10:45.000Z,10.6
2022-12-29T01:12:02.000Z,10.6
2022-12-29T01:13:18.000Z,10.6
2022-12-29T01:14:34.000Z,10.5
2022-12-29T01:15:51.363Z,10.5
2022-12-29T01:17:07.000Z,10.5
2022-12-29T01:18:23.000Z,10.5
2022-12-29T01:19:39.000Z,10.4
2022-12-29T01:20:55.000Z,10.4
2022-12-29T01:22:11.000Z,10.4
2022-12-29T01:23:27.000Z,10.4
2022-12-29T01:24:44.000Z,10.4
2022-12-29T01:26:00.000Z,10.4
2022-12-29T01:27:16.000Z,10.4
2022-12-29T01:28:33.252Z,10.4
2022-12-29T01:29:49.000Z,10.4
2022-12-29T01:31:05.000Z,10.4
2022-12-29T01:32:21.000Z,10.4
2022-12-29T01:33:38.000Z,10.4
2022-12-29T01:34:54.000Z,10.4
2022-12-29T01:36:10.000Z,10.4
2022-12-29T01:37:26.284Z,10.4
2022-12-29T01:38:41.000Z,10.5
2022-12-29T01:39:56.000Z,10.5
2022-12-29T01:41:12.000Z,10.5
2022-12-29T01:42:29.000Z,10.5
2022-12-29T01:43:44.000Z,10.5
2022-12-29T01:44:59.000Z,10.5
2022-12-29T01:46:16.000Z,10.5
2022-12-29T01:47:32.000Z,10.4
2022-12-29T01:48:48.000Z,10.4
2022-12-29T01:50:04.000Z,10.4
2022-12-29T01:51:21.000Z,10.4
2022-12-29T01:52:37.000Z,10.4
2022-12-29T01:53:53.000Z,10.4
2022-12-29T01:55:10.485Z,10.4
2022-12-29T01:56:26.000Z,10.4
2022-12-29T01:57:42.000Z,10.4
2022-12-29T01:58:59.000Z,10.4
2022-12-29T02:00:15.000Z,10.4
2022-12-29T02:01:30.000Z,10.4
2022-12-29T02:02:46.000Z,10.4
2022-12-29T02:04:03.399Z,10.4
2022-12-29T02:05:19.000Z,10.4
2022-12-29T02:06:36.010Z,10.4
2022-12-29T02:07:52.000Z,10.4
2022-12-29T02:09:08.000Z,10.4
2022-12-29T02:10:24.000Z,10.5
2022-12-29T02:11:40.000Z,10.4
2022-12-29T02:12:57.000Z,10.4
2022-12-29T02:14:13.000Z,10.4
2022-12-29T02:15:29.000Z,10.4
2022-12-29T02:16:46.000Z,10.4
2022-12-29T02:18:01.000Z,10.4
2022-12-29T02:19:17.000Z,10.5
2022-12-29T02:20:33.000Z,10.5
2022-12-29T02:21:50.000Z,10.5
2022-12-29T02:23:06.784Z,10.6
2022-12-29T02:24:22.000Z,10.6
2022-12-29T02:25:39.000Z,10.6
2022-12-29T02:26:55.000Z,10.6
2022-12-29T02:28:11.000Z,10.6
2022-12-29T02:29:27.000Z,10.6
2022-12-29T02:30:44.000Z,10.6
2022-12-29T02:32:00.000Z,10.7
2022-12-29T02:33:16.000Z,10.7
2022-12-29T02:34:32.000Z,10.6
2022-12-29T02:35:48.000Z,10.6
2022-12-29T02:37:04.000Z,10.6
2022-12-29T02:38:21.208Z,10.6
2022-12-29T02:39:37.000Z,10.6
2022-12-29T02:40:53.000Z,10.6
2022-12-29T02:42:09.000Z,10.6
2022-12-29T02:43:26.000Z,10.7
2022-12-29T02:44:42.000Z,10.7
2022-12-29T02:45:58.000Z,10.7
2022-12-29T02:47:14.000Z,10.8
2022-12-29T02:48:31.000Z,10.8
2022-12-29T02:49:47.000Z,10.8
2022-12-29T02:51:02.000Z,10.8
2022-12-29T02:52:19.000Z,10.8
2022-12-29T02:53:35.000Z,10.8
2022-12-29T02:54:51.000Z,10.8
2022-12-29T02:56:07.000Z,10.9
2022-12-29T02:57:24.526Z,10.9
2022-12-29T02:58:40.000Z,10.9
2022-12-29T02:59:55.000Z,10.9
2022-12-29T03:01:11.000Z,10.9
2022-12-29T03:02:26.000Z,11
2022-12-29T03:03:41.000Z,11
2022-12-29T03:04:58.000Z,11
2022-12-29T03:06:14.000Z,11.1
2022-12-29T03:07:30.000Z,11.1
2022-12-29T03:08:47.201Z,11.1
2022-12-29T03:10:03.000Z,11.2
2022-12-29T03:11:19.000Z,11.2
2022-12-29T03:12:35.000Z,11.2
2022-12-29T03:13:52.000Z,11.2
2022-12-29T03:15:08.000Z,11.2
2022-12-29T03:16:24.000Z,11.2
2022-12-29T03:17:40.000Z,11.2
2022-12-29T03:18:57.000Z,11.2
2022-12-29T03:20:12.000Z,11.2
2022-12-29T03:21:28.000Z,11.2
2022-12-29T03:22:45.384Z,11.2
2022-12-29T03:24:01.000Z,11.2
2022-12-29T03:25:17.000Z,11.2
2022-12-29T03:26:33.000Z,11.2
2022-12-29T03:27:50.000Z,11.2
2022-12-29T03:29:06.000Z,11.2
2022-12-29T03:30:22.000Z,11.2
2022-12-29T03:31:39.000Z,11.2
2022-12-29T03:32:55.000Z,11.2
2022-12-29T03:34:11.000Z,11.2
2022-12-29T03:35:28.263Z,11.3
2022-12-29T03:36:43.000Z,11.2
2022-12-29T03:37:59.000Z,11.3
2022-12-29T03:39:15.000Z,11.3
2022-12-29T03:40:32.000Z,11.3
2022-12-29T03:41:48.000Z,11.3
2022-12-29T03:43:04.000Z,11.3
2022-12-29T03:44:21.000Z,11.3
2022-12-29T03:45:37.000Z,11.3
2022-12-29T03:46:53.000Z,11.4
2022-12-29T03:48:09.000Z,11.4
2022-12-29T03:49:26.000Z,11.4
2022-12-29T03:50:42.000Z,11.4
2022-12-29T03:51:58.000Z,11.4
2022-12-29T03:53:14.000Z,11.4
2022-12-29T03:54:30.593Z,11.4
2022-12-29T03:55:46.000Z,11.4
2022-12-29T03:57:02.000Z,11.4
2022-12-29T03:58:19.000Z,11.4
2022-12-29T03:59:35.749Z,11.6
2022-12-29T04:00:51.000Z,11.6
2022-12-29T04:02:08.000Z,11.6
2022-12-29T04:03:24.000Z,11.5
2022-12-29T04:04:40.000Z,11.5
2022-12-29T04:05:57.189Z,11.5
2022-12-29T04:07:13.000Z,11.5
2022-12-29T04:08:29.000Z,11.5
2022-12-29T04:09:44.000Z,11.5
2022-12-29T04:11:01.000Z,11.4
2022-12-29T04:12:17.000Z,11.4
2022-12-29T04:13:33.900Z,11.3
2022-12-29T04:14:49.000Z,11.3
2022-12-29T04:16:06.000Z,11.2
2022-12-29T04:17:22.000Z,11.2
2022-12-29T04:18:38.000Z,11.3
2022-12-29T04:19:55.000Z,11.3
2022-12-29T04:21:11.000Z,11.2
2022-12-29T04:22:27.000Z,11.2
2022-12-29T04:23:43.000Z,11.2
2022-12-29T04:25:00.000Z,11.2
2022-12-29T04:26:15.821Z,11.2
2022-12-29T04:27:31.000Z,11.2
2022-12-29T04:28:48.000Z,11.1
2022-12-29T04:30:04.000Z,11.1
2022-12-29T04:31:20.000Z,11.1
2022-12-29T04:32:36.000Z,11.1
2022-12-29T04:33:52.000Z,11
2022-12-29T04:35:08.000Z,11
2022-12-29T04:36:24.000Z,11
2022-12-29T04:37:41.000Z,11
2022-12-29T04:38:57.000Z,10.9
2022-12-29T04:40:13.976Z,10.9
2022-12-29T04:41:30.000Z,10.9
2022-12-29T04:42:46.000Z,10.8
2022-12-29T04:44:02.000Z,10.8
2022-12-29T04:45:18.000Z,10.7
2022-12-29T04:46:35.000Z,10.7
2022-12-29T04:47:51.000Z,10.7
2022-12-29T04:49:07.000Z,10.7
2022-12-29T04:50:23.000Z,10.7
2022-12-29T04:51:39.000Z,10.7
2022-12-29T04:52:55.000Z,10.6
2022-12-29T04:54:11.000Z,10.6
2022-12-29T04:55:28.000Z,10.6
2022-12-29T04:56:44.000Z,10.5
2022-12-29T04:58:00.000Z,10.5
2022-12-29T04:59:17.000Z,10.5
2022-12-29T05:00:33.000Z,10.5
2022-12-29T05:01:49.000Z,10.5
2022-12-29T05:03:05.000Z,10.5
2022-12-29T05:04:22.480Z,10.4
2022-12-29T05:05:38.000Z,10.4
2022-12-29T05:06:53.000Z,10.4
2022-12-29T05:08:10.000Z,10.4
2022-12-29T05:09:26.000Z,10.4
2022-12-29T05:10:42.000Z,10.4
2022-12-29T05:11:58.000Z,10.3
2022-12-29T05:13:15.000Z,10.3
2022-12-29T05:14:31.000Z,10.2
2022-12-29T05:15:47.000Z,10.2
2022-12-29T05:18:20.622Z,10.1
2022-12-29T05:19:36.000Z,10.1
2022-12-29T05:20:53.273Z,10
2022-12-29T05:22:09.000Z,10
2022-12-29T05:23:24.000Z,9.9
2022-12-29T05:24:40.000Z,9.9
2022-12-29T05:25:57.378Z,9.9
2022-12-29T05:27:13.000Z,9.9
2022-12-29T05:28:29.000Z,9.9
2022-12-29T05:29:46.000Z,9.9
2022-12-29T05:31:02.000Z,9.9
2022-12-29T05:32:18.000Z,9.9
2022-12-29T05:33:35.123Z,9.9
2022-12-29T05:34:51.000Z,9.9
2022-12-29T05:36:07.000Z,9.9
2022-12-29T05:37:23.000Z,9.9
2022-12-29T05:38:40.000Z,9.9
2022-12-29T05:39:55.000Z,9.9
2022-12-29T05:41:11.000Z,9.9
2022-12-29T05:42:27.000Z,9.9
2022-12-29T05:43:44.413Z,9.9
2022-12-29T05:45:00.000Z,9.9
2022-12-29T05:46:16.000Z,9.9
2022-12-29T05:47:33.000Z,9.9
2022-12-29T05:48:49.000Z,9.9
2022-12-29T05:50:05.000Z,9.9
2022-12-29T05:51:21.000Z,9.9
2022-12-29T05:52:38.000Z,9.9
2022-12-29T05:53:54.000Z,9.9
2022-12-29T05:55:11.021Z,9.9
2022-12-29T05:56:26.000Z,9.9
2022-12-29T05:57:42.000Z,9.9
2022-12-29T05:58:58.000Z,9.8
2022-12-29T06:00:14.000Z,9.9
2022-12-29T06:01:31.000Z,9.8
2022-12-29T06:02:47.000Z,9.8
2022-12-29T06:04:03.000Z,9.8
2022-12-29T06:05:20.000Z,9.8
2022-12-29T06:06:36.000Z,9.9
2022-12-29T06:07:52.000Z,9.9
2022-12-29T06:09:08.000Z,9.9
2022-12-29T06:10:25.000Z,9.9
2022-12-29T06:11:41.000Z,9.9
2022-12-29T06:12:56.000Z,9.9
2022-12-29T06:14:13.000Z,9.9
2022-12-29T06:15:29.000Z,9.9
2022-12-29T06:16:45.000Z,9.8
2022-12-29T06:18:01.000Z,9.8
2022-12-29T06:19:18.000Z,9.8
2022-12-29T06:20:34.814Z,9.8
2022-12-29T06:21:50.000Z,9.8
2022-12-29T06:23:07.000Z,9.8
2022-12-29T06:24:23.000Z,9.8
2022-12-29T06:25:39.000Z,9.8
2022-12-29T06:26:55.000Z,9.8
2022-12-29T06:28:12.000Z,9.8
2022-12-29T06:29:27.000Z,9.8
2022-12-29T06:30:43.000Z,9.7
2022-12-29T06:32:00.000Z,9.7
2022-12-29T06:33:16.000Z,9.8
2022-12-29T06:34:32.953Z,9.8
2022-12-29T06:35:49.000Z,9.8
2022-12-29T06:37:05.000Z,9.8
2022-12-29T06:38:21.000Z,9.8
2022-12-29T06:39:37.000Z,9.8
2022-12-29T06:40:54.000Z,9.8
2022-12-29T06:42:10.000Z,9.8
2022-12-29T06:43:26.000Z,9.8
2022-12-29T06:44:43.000Z,9.9
2022-12-29T06:45:58.579Z,9.9
2022-12-29T06:47:14.000Z,9.8
2022-12-29T06:48:30.000Z,9.8
2022-12-29T06:49:47.000Z,9.8
2022-12-29T06:51:03.000Z,9.9
2022-12-29T06:52:20.019Z,9.8
2022-12-29T06:53:35.000Z,9.9
2022-12-29T06:54:52.000Z,10
2022-12-29T06:56:08.000Z,10
2022-12-29T06:57:24.000Z,10
2022-12-29T06:58:41.000Z,10
2022-12-29T06:59:57.000Z,10
2022-12-29T07:01:13.812Z,10
2022-12-29T07:02:28.000Z,10
2022-12-29T07:03:45.000Z,10
2022-12-29T07:05:01.000Z,10
2022-12-29T07:06:17.000Z,10
2022-12-29T07:07:33.000Z,10
2022-12-29T07:08:49.000Z,10
2022-12-29T07:10:06.479Z,10
2022-12-29T07:11:22.723Z,10
2022-12-29T07:12:38.000Z,10
2022-12-29T07:13:54.000Z,9.9
2022-12-29T07:15:11.000Z,10
2022-12-29T07:16:27.000Z,9.9
2022-12-29T07:17:43.000Z,9.9
2022-12-29T07:18:58.000Z,9.9
2022-12-29T07:20:15.000Z,9.9
2022-12-29T07:21:31.000Z,9.9
2022-12-29T07:22:47.000Z,9.9
2022-12-29T07:24:03.000Z,9.9
2022-12-29T07:25:20.000Z,9.9
2022-12-29T07:26:36.000Z,9.9
2022-12-29T07:27:52.000Z,9.9
2022-12-29T07:29:08.000Z,9.9
2022-12-29T07:30:24.000Z,9.9
2022-12-29T07:31:41.000Z,9.9
2022-12-29T07:32:57.000Z,9.9
2022-12-29T07:34:13.000Z,9.9
2022-12-29T07:35:28.000Z,9.9
2022-12-29T07:36:45.000Z,9.8
2022-12-29T07:38:01.000Z,9.8
2022-12-29T07:39:17.000Z,9.9
2022-12-29T07:40:33.000Z,9.8
2022-12-29T07:41:50.000Z,9.8
2022-12-29T07:43:06.000Z,9.9
2022-12-29T07:44:22.000Z,9.9
2022-12-29T07:45:38.000Z,9.9
2022-12-29T07:46:55.000Z,9.9
2022-12-29T07:48:11.000Z,9.9
2022-12-29T07:49:27.000Z,9.9
2022-12-29T07:50:43.968Z,9.9
2022-12-29T07:51:58.000Z,9.9
2022-12-29T07:53:15.000Z,9.9
2022-12-29T07:54:31.000Z,10
2022-12-29T07:55:47.000Z,10
2022-12-29T07:57:04.169Z,10
2022-12-29T07:58:20.399Z,10
2022-12-29T07:59:36.000Z,10
2022-12-29T08:00:52.000Z,9.9
2022-12-29T08:02:09.095Z,10
2022-12-29T08:03:25.000Z,10
2022-12-29T08:04:41.000Z,10
2022-12-29T08:05:57.000Z,10
2022-12-29T08:07:13.000Z,10
2022-12-29T08:08:29.000Z,10
2022-12-29T08:09:45.000Z,10
2022-12-29T08:11:01.000Z,10
2022-12-29T08:12:17.000Z,10
2022-12-29T08:13:33.000Z,10
2022-12-29T08:14:50.453Z,10
2022-12-29T08:16:06.000Z,10
2022-12-29T08:17:22.000Z,10
2022-12-29T08:18:38.000Z,10.1
2022-12-29T08:19:55.000Z,10.1
2022-12-29T08:21:11.000Z,10
2022-12-29T08:22:27.849Z,10
2022-12-29T08:23:43.000Z,10
2022-12-29T08:24:59.000Z,10.1
2022-12-29T08:26:15.000Z,10.1
2022-12-29T08:27:31.000Z,10.1
2022-12-29T08:28:47.000Z,10.1
2022-12-29T08:30:04.000Z,10
2022-12-29T08:31:20.000Z,10.1
2022-12-29T08:32:36.000Z,10.1
2022-12-29T08:33:52.000Z,10.2
2022-12-29T08:35:08.000Z,10.2
2022-12-29T08:36:25.000Z,10.3
2022-12-29T08:37:41.684Z,10.3
2022-12-29T08:38:57.891Z,10.3
2022-12-29T08:40:14.116Z,10.4
2022-12-29T08:41:29.000Z,10.4
2022-12-29T08:42:45.000Z,10.5
2022-12-29T08:44:01.000Z,10.5
2022-12-29T08:45:17.000Z,10.5
2022-12-29T08:46:34.000Z,10.6
2022-12-29T08:47:50.000Z,10.6
2022-12-29T08:49:05.000Z,10.6
2022-12-29T08:50:21.000Z,10.6
2022-12-29T08:51:38.269Z,10.6
2022-12-29T08:52:54.496Z,10.7
2022-12-29T08:54:10.000Z,10.6
2022-12-29T08:55:26.000Z,10.7
2022-12-29T08:56:42.000Z,10.7
2022-12-29T08:57:59.000Z,10.7
2022-12-29T08:59:15.000Z,10.7
2022-12-29T09:00:31.000Z,10.7
2022-12-29T09:01:47.000Z,10.7
2022-12-29T09:03:04.000Z,10.8
2022-12-29T09:04:20.000Z,10.9
2022-12-29T09:05:35.000Z,11
2022-12-29T09:06:51.000Z,11
2022-12-29T09:08:08.000Z,11.1
2022-12-29T09:09:24.000Z,11.1
2022-12-29T09:10:40.000Z,11.1
2022-12-29T09:11:56.000Z,11.1
2022-12-29T09:13:12.000Z,11.1
2022-12-29T09:14:29.000Z,11.1
2022-12-29T09:15:45.000Z,11.1
2022-12-29T09:17:01.000Z,11.1
2022-12-29T09:18:17.000Z,11.2
2022-12-29T09:19:34.418Z,11.2
2022-12-29T09:20:50.000Z,11.3
2022-12-29T09:22:05.898Z,11.3
2022-12-29T09:23:21.000Z,11.5
2022-12-29T09:24:38.000Z,11.6
2022-12-29T09:25:54.000Z,11.7
2022-12-29T09:27:10.839Z,12.1
2022-12-29T09:28:26.000Z,12.7
2022-12-29T09:29:43.299Z,13.2
2022-12-29T09:30:59.511Z,13.8
2022-12-29T09:32:15.000Z,14.1
2022-12-29T09:33:31.000Z,14.2
2022-12-29T09:34:47.000Z,14.6
2022-12-29T09:36:04.000Z,15.2
2022-12-29T09:37:20.000Z,15.9
2022-12-29T09:38:35.000Z,16
2022-12-29T09:39:51.000Z,16.2
2022-12-29T09:41:08.000Z,15.3
2022-12-29T09:42:24.000Z,14
2022-12-29T09:43:40.875Z,13.3
2022-12-29T09:44:56.000Z,14.1
2022-12-29T09:46:13.000Z,13.1
2022-12-29T09:47:29.000Z,12.7
2022-12-29T09:48:45.000Z,12.4
2022-12-29T09:50:01.000Z,12.2
2022-12-29T09:51:18.000Z,12
2022-12-29T09:52:34.000Z,11.9
2022-12-29T09:53:50.000Z,11.8
2022-12-29T09:55:05.997Z,12
2022-12-29T09:56:21.000Z,11.9
2022-12-29T09:57:38.000Z,11.8
2022-12-29T09:58:54.000Z,11.8
2022-12-29T10:00:10.000Z,11.8
2022-12-29T10:01:26.000Z,11.7
2022-12-29T10:02:43.000Z,11.7
2022-12-29T10:03:59.000Z,11.7
2022-12-29T10:05:15.000Z,11.7
2022-12-29T10:06:31.000Z,11.7
2022-12-29T10:07:48.000Z,11.7
2022-12-29T10:09:04.000Z,11.7
2022-12-29T10:10:20.790Z,11.7
2022-12-29T10:11:35.000Z,11.7
2022-12-29T10:12:52.000Z,11.7
2022-12-29T10:14:08.000Z,11.7
2022-12-29T10:15:24.000Z,11.8
2022-12-29T10:16:40.000Z,11.8
2022-12-29T10:17:56.000Z,11.7
2022-12-29T10:19:13.000Z,11.7
2022-12-29T10:20:29.000Z,11.7
2022-12-29T10:21:45.000Z,11.7
2022-12-29T10:23:01.000Z,11.7
2022-12-29T10:24:18.000Z,11.7
2022-12-29T10:25:34.000Z,11.8
2022-12-29T10:26:50.000Z,11.8
2022-12-29T10:28:06.087Z,11.8
2022-12-29T10:29:22.000Z,11.8
2022-12-29T10:30:38.000Z,11.8
2022-12-29T10:31:54.000Z,11.7
2022-12-29T10:33:10.000Z,11.7
2022-12-29T10:34:27.000Z,11.7
2022-12-29T10:35:43.000Z,11.7
2022-12-29T10:36:59.000Z,11.7
2022-12-29T10:38:15.000Z,11.7
2022-12-29T10:39:31.000Z,11.7
2022-12-29T10:40:48.000Z,11.6
2022-12-29T10:42:04.000Z,11.6
2022-12-29T10:43:20.000Z,11.6
2022-12-29T10:44:35.000Z,11.7
2022-12-29T10:45:52.379Z,11.7
2022-12-29T10:47:08.000Z,11.8
2022-12-29T10:48:24.000Z,11.9
2022-12-29T10:49:40.000Z,11.8
2022-12-29T10:50:57.000Z,11.8
2022-12-29T10:52:13.000Z,11.8
2022-12-29T10:53:29.756Z,11.9
2022-12-29T10:54:45.000Z,11.9
2022-12-29T10:56:01.000Z,12
2022-12-29T10:57:18.000Z,12.1
2022-12-29T10:58:34.000Z,12
2022-12-29T10:59:50.946Z,12
2022-12-29T11:01:05.000Z,11.9
2022-12-29T11:02:22.434Z,12
2022-12-29T11:03:38.000Z,12.2
2022-12-29T11:04:54.000Z,12.3
2022-12-29T11:06:10.000Z,12.6
2022-12-29T11:07:27.000Z,12.5
2022-12-29T11:08:43.000Z,12.4
2022-12-29T11:09:59.000Z,12.3
2022-12-29T11:11:15.000Z,12.3
2022-12-29T11:12:32.312Z,12.4
2022-12-29T11:13:48.000Z,12.3
2022-12-29T11:15:04.000Z,12.3
2022-12-29T11:16:20.000Z,12.2
2022-12-29T11:17:36.000Z,12.1
2022-12-29T11:18:52.000Z,12.1
2022-12-29T11:20:08.000Z,12.1
2022-12-29T11:21:24.936Z,12.1
2022-12-29T11:22:40.000Z,12.1
2022-12-29T11:23:57.000Z,12.1
2022-12-29T11:25:13.000Z,12
2022-12-29T11:26:29.000Z,12.1
2022-12-29T11:27:45.000Z,12.2
2022-12-29T11:29:02.000Z,12.1
2022-12-29T11:30:18.000Z,12.1
2022-12-29T11:31:34.000Z,12.1
2022-12-29T11:32:50.000Z,12.1
2022-12-29T11:34:06.000Z,12
2022-12-29T11:35:22.000Z,12
2022-12-29T11:36:38.000Z,12
2022-12-29T11:37:54.000Z,12
2022-12-29T11:39:11.236Z,12
2022-12-29T11:40:27.000Z,12
2022-12-29T11:41:43.000Z,12.1
2022-12-29T11:42:59.000Z,12.1
2022-12-29T11:44:15.000Z,12.2
2022-12-29T11:45:32.000Z,12.2
2022-12-29T11:46:48.000Z,12.1
2022-12-29T11:48:04.000Z,12.1
2022-12-29T11:49:20.000Z,12.1
2022-12-29T11:51:52.000Z,12.1
2022-12-29T11:53:08.000Z,12.1
2022-12-29T11:54:24.000Z,12.1
2022-12-29T11:55:41.000Z,12
2022-12-29T11:56:57.000Z,12
2022-12-29T11:58:13.000Z,12
2022-12-29T11:59:29.000Z,12
2022-12-29T12:00:45.000Z,11.9
2022-12-29T12:02:02.000Z,11.9
2022-12-29T12:03:18.662Z,11.9
2022-12-29T12:04:34.000Z,11.9
2022-12-29T12:05:50.000Z,11.9
2022-12-29T12:07:06.000Z,11.9
2022-12-29T12:08:22.000Z,11.9
2022-12-29T12:09:38.851Z,11.9
2022-12-29T12:10:54.000Z,12
2022-12-29T12:12:11.000Z,12
2022-12-29T12:13:27.000Z,12
2022-12-29T12:14:43.000Z,11.9
2022-12-29T12:15:59.000Z,11.9
2022-12-29T12:17:16.000Z,11.9
2022-12-29T12:18:32.000Z,11.9
2022-12-29T12:19:48.711Z,11.9
2022-12-29T12:21:04.000Z,11.9
2022-12-29T12:22:20.000Z,12
2022-12-29T12:23:36.000Z,11.9
2022-12-29T12:24:52.000Z,11.9
2022-12-29T12:26:08.000Z,11.9
2022-12-29T12:27:24.000Z,11.9
2022-12-29T12:28:41.392Z,11.9
2022-12-29T12:29:57.000Z,11.9
2022-12-29T12:31:13.000Z,11.9
2022-12-29T12:32:29.000Z,12
2022-12-29T12:33:46.000Z,12
2022-12-29T12:35:02.000Z,12
2022-12-29T12:36:18.000Z,12
2022-12-29T12:37:34.000Z,11.9
2022-12-29T12:38:50.000Z,12
2022-12-29T12:40:06.000Z,11.9
2022-12-29T12:41:22.727Z,11.9
2022-12-29T12:42:38.000Z,11.9
2022-12-29T12:43:54.000Z,11.8
2022-12-29T12:45:11.000Z,11.8
2022-12-29T12:46:27.000Z,11.8
2022-12-29T12:47:43.000Z,11.8
2022-12-29T12:48:59.000Z,11.8
2022-12-29T12:50:16.000Z,11.7
2022-12-29T12:51:32.000Z,11.7
2022-12-29T12:52:48.000Z,11.8
2022-12-29T12:54:04.000Z,11.8
2022-12-29T12:55:21.298Z,11.8
2022-12-29T12:56:36.000Z,11.7
2022-12-29T12:57:52.000Z,11.7
2022-12-29T12:59:08.000Z,11.8
2022-12-29T13:00:25.254Z,11.8
2022-12-29T13:01:41.000Z,11.8
2022-12-29T13:02:57.000Z,11.8
2022-12-29T13:04:12.000Z,11.8
2022-12-29T13:05:28.000Z,11.9
2022-12-29T13:06:45.000Z,11.9
2022-12-29T13:08:01.000Z,11.9
2022-12-29T13:09:17.000Z,11.8
2022-12-29T13:10:34.124Z,11.7
2022-12-29T13:11:50.000Z,11.7
2022-12-29T13:13:06.000Z,11.7
2022-12-29T13:14:22.000Z,11.7
2022-12-29T13:15:39.074Z,11.6
2022-12-29T13:16:55.000Z,11.6
2022-12-29T13:18:11.000Z,11.5
2022-12-29T13:19:27.748Z,11.5
2022-12-29T13:20:43.006Z,11.5
2022-12-29T13:21:58.000Z,11.5
2022-12-29T13:23:15.000Z,11.4
2022-12-29T13:24:31.000Z,11.5
2022-12-29T13:25:47.000Z,11.5
2022-12-29T13:27:03.000Z,11.5
2022-12-29T13:28:20.419Z,11.5
2022-12-29T13:29:36.000Z,11.5
2022-12-29T13:30:52.000Z,11.5
2022-12-29T13:32:08.000Z,11.5
2022-12-29T13:33:25.000Z,11.5
2022-12-29T13:34:41.000Z,11.5
2022-12-29T13:35:57.000Z,11.5
2022-12-29T13:37:12.000Z,11.5
2022-12-29T13:38:29.000Z,11.4
2022-12-29T13:39:45.000Z,11.4
2022-12-29T13:41:01.000Z,11.5
2022-12-29T13:42:17.000Z,11.5
2022-12-29T13:43:33.000Z,11.4
2022-12-29T13:44:50.000Z,11.5
2022-12-29T13:46:06.000Z,11.5
2022-12-29T13:47:22.000Z,11.5
2022-12-29T13:48:39.165Z,11.4
2022-12-29T13:49:55.000Z,11.4
2022-12-29T13:51:11.000Z,11.4
2022-12-29T13:52:27.000Z,11.4
2022-12-29T13:53:42.000Z,11.4
2022-12-29T13:54:59.000Z,11.4
2022-12-29T13:56:15.000Z,11.4
2022-12-29T13:57:31.000Z,11.4
2022-12-29T13:58:47.000Z,11.4
2022-12-29T14:00:04.000Z,11.4
2022-12-29T14:01:20.000Z,11.3
2022-12-29T14:02:36.000Z,11.3
2022-12-29T14:03:52.000Z,11.3
2022-12-29T14:05:08.000Z,11.2
2022-12-29T14:06:25.000Z,11.2
2022-12-29T14:07:41.000Z,11.2
2022-12-29T14:08:57.914Z,11.2
2022-12-29T14:11:29.000Z,11.1
2022-12-29T14:12:45.644Z,11
2022-12-29T14:14:01.000Z,11
2022-12-29T14:15:17.000Z,11
2022-12-29T14:16:34.000Z,11
2022-12-29T14:17:50.000Z,11
2022-12-29T14:19:06.000Z,11.1
2022-12-29T14:20:22.000Z,11
2022-12-29T14:21:39.266Z,11
2022-12-29T14:22:55.000Z,10.9
2022-12-29T14:24:11.000Z,11
2022-12-29T14:25:27.000Z,11
2022-12-29T14:26:42.000Z,11
2022-12-29T14:27:59.000Z,11
2022-12-29T14:29:15.000Z,11
2022-12-29T14:30:31.000Z,11
2022-12-29T14:31:47.000Z,11
2022-12-29T14:33:04.000Z,11
2022-12-29T14:34:20.000Z,11
2022-12-29T14:35:36.000Z,11
2022-12-29T14:36:52.000Z,11
2022-12-29T14:38:09.000Z,11
2022-12-29T14:39:25.000Z,11
2022-12-29T14:40:41.000Z,11.1
2022-12-29T14:41:57.000Z,11
2022-12-29T14:43:13.000Z,11.1
2022-12-29T14:44:29.000Z,11.1
2022-12-29T14:45:45.000Z,11.1
2022-12-29T14:47:01.000Z,11.1
2022-12-29T14:48:18.195Z,11.1
2022-12-29T14:49:34.439Z,11.1
2022-12-29T14:50:50.000Z,11.1
2022-12-29T14:52:06.000Z,11.1
2022-12-29T14:53:22.000Z,11.1
2022-12-29T14:54:39.000Z,11.1
2022-12-29T14:55:55.000Z,11.1
2022-12-29T14:57:11.000Z,11.1
2022-12-29T14:58:27.000Z,11.2
2022-12-29T14:59:43.000Z,11.1
2022-12-29T15:00:59.000Z,11.1
2022-12-29T15:02:15.785Z,11.2
2022-12-29T15:03:31.000Z,11.1
2022-12-29T15:04:47.000Z,11.1
2022-12-29T15:06:04.000Z,11.1
2022-12-29T15:07:20.000Z,11.2
2022-12-29T15:08:36.000Z,11.1
2022-12-29T15:09:52.000Z,11.1
2022-12-29T15:11:09.000Z,11.1
2022-12-29T15:12:25.000Z,11.1
2022-12-29T15:13:41.000Z,11.1
2022-12-29T15:14:57.000Z,11.1
2022-12-29T15:16:13.000Z,11.1
2022-12-29T15:17:29.604Z,11.1
2022-12-29T15:18:45.000Z,11.1
2022-12-29T15:20:01.000Z,11.1
2022-12-29T15:21:18.000Z,11.1
2022-12-29T15:22:34.000Z,11.1
2022-12-29T15:23:50.000Z,11
2022-12-29T15:25:06.000Z,11
2022-12-29T15:26:23.240Z,11
2022-12-29T15:27:39.000Z,11
2022-12-29T15:28:55.000Z,11
2022-12-29T15:30:11.000Z,11
2022-12-29T15:31:27.000Z,11
2022-12-29T15:32:43.000Z,11
2022-12-29T15:33:59.000Z,11
2022-12-29T15:35:15.000Z,11
2022-12-29T15:36:31.000Z,11
2022-12-29T15:37:48.000Z,10.9
2022-12-29T15:40:20.000Z,10.8
2022-12-29T15:41:35.000Z,10.7
2022-12-29T15:42:51.000Z,10.6
2022-12-29T15:44:07.000Z,10.6
2022-12-29T15:45:22.000Z,10.5
2022-12-29T15:46:37.000Z,10.4
2022-12-29T15:47:54.000Z,10.4
2022-12-29T15:49:10.000Z,10.4
2022-12-29T15:50:26.000Z,10.3
2022-12-29T15:51:42.000Z,10.3
2022-12-29T15:52:59.326Z,10.2
2022-12-29T15:54:15.000Z,10.3
2022-12-29T15:55:31.000Z,10.2
2022-12-29T15:56:47.000Z,10.2
2022-12-29T15:58:04.000Z,10.2
2022-12-29T15:59:20.000Z,10.1
2022-12-29T16:00:37.077Z,10.1
2022-12-29T16:01:53.348Z,10.2
2022-12-29T16:03:09.000Z,10.1
2022-12-29T16:04:24.931Z,10
2022-12-29T16:05:40.000Z,9.9
2022-12-29T16:06:57.000Z,9.9
2022-12-29T16:08:13.000Z,9.7
2022-12-29T16:09:30.150Z,9.6
2022-12-29T16:10:46.000Z,9.6
2022-12-29T16:12:02.000Z,9.5
2022-12-29T16:14:34.000Z,9.4
2022-12-29T16:15:51.000Z,9.3
2022-12-29T16:18:23.000Z,9.3
2022-12-29T16:19:40.000Z,9.2
2022-12-29T16:20:55.000Z,9.2
2022-12-29T16:22:11.000Z,9.2
2022-12-29T16:23:28.000Z,9.2
2022-12-29T16:24:44.000Z,9.2
2022-12-29T16:26:00.000Z,9.2
2022-12-29T16:27:16.000Z,9.2
2022-12-29T16:28:33.000Z,9.2
2022-12-29T16:29:49.000Z,9.1
2022-12-29T16:31:05.000Z,9.1
2022-12-29T16:32:22.000Z,9.2
2022-12-29T16:33:38.000Z,9.1
2022-12-29T16:34:54.000Z,9.2
2022-12-29T16:36:11.158Z,9.1
2022-12-29T16:37:26.000Z,9.1
2022-12-29T16:38:42.000Z,9.1
2022-12-29T16:39:58.000Z,9.1
2022-12-29T16:41:15.000Z,9.2
2022-12-29T16:42:31.000Z,9.2
2022-12-29T16:43:47.000Z,9.1
2022-12-29T16:45:03.000Z,9.1
2022-12-29T16:46:20.000Z,9.1
2022-12-29T16:47:36.000Z,9.1
2022-12-29T16:48:52.000Z,9.1
2022-12-29T16:50:09.000Z,9.1
2022-12-29T16:51:25.000Z,9.1
2022-12-29T16:52:41.000Z,9.2
2022-12-29T16:53:56.000Z,9.2
2022-12-29T16:56:29.000Z,9.2
2022-12-29T16:57:45.000Z,9.2
2022-12-29T16:59:02.000Z,9.2
2022-12-29T17:00:18.000Z,9.2
2022-12-29T17:01:34.000Z,9.2
2022-12-29T17:02:50.000Z,9.2
2022-12-29T17:04:07.482Z,9.2
2022-12-29T17:05:23.000Z,9.2
2022-12-29T17:06:39.000Z,9.2
2022-12-29T17:07:56.000Z,9.3
2022-12-29T17:09:12.656Z,9.3
2022-12-29T17:10:27.000Z,9.3
2022-12-29T17:11:43.000Z,9.3
2022-12-29T17:13:00.000Z,9.4
2022-12-29T17:14:16.000Z,9.4
2022-12-29T17:15:32.000Z,9.4
2022-12-29T17:16:49.000Z,9.4
2022-12-29T17:18:05.000Z,9.4
2022-12-29T17:19:20.000Z,9.4